sensor_id;sensor_type;location;lat;lon;timestamp;P1;durP1;ratioP1;P2;durP2;ratioP2
16440;SDS011;8330;-33.858;151.184;2023-08-21T00:01:23;1.20;;;0.80;;
16440;SDS011;8330;-33.858;151.184;2023-08-21T00:03:56;1.90;;;0.90;;
16440;SDS011;8330;-33.858;151.184;2023-08-21T00:06:27;2.13;;;0.80;;
16440;SDS011;8330;-33.858;151.184;2023-08-21T00:08:58;2.15;;;0.60;;
16440;SDS011;8330;-33.858;151.184;2023-08-21T00:11:30;1.15;;;0.80;;
16440;SDS011;8330;-33.858;151.184;2023-08-21T00:14:01;4.22;;;0.88;;
16440;SDS011;8330;-33.858;151.184;2023-08-21T00:16:32;1.67;;;0.90;;
16440;SDS011;8330;-33.858;151.184;2023-08-21T00:19:05;2.95;;;1.00;;
16440;SDS011;8330;-33.858;151.184;2023-08-21T00:21:36;1.05;;;0.80;;
16440;SDS011;8330;-33.858;151.184;2023-08-21T00:24:07;1.45;;;0.70;;
16440;SDS011;8330;-33.858;151.184;2023-08-21T00:26:38;2.00;;;0.93;;
16440;SDS011;8330;-33.858;151.184;2023-08-21T00:29:09;2.88;;;0.70;;
16440;SDS011;8330;-33.858;151.184;2023-08-21T00:31:40;1.27;;;0.80;;
16440;SDS011;8330;-33.858;151.184;2023-08-21T00:34:13;1.25;;;0.80;;
16440;SDS011;8330;-33.858;151.184;2023-08-21T00:36:44;3.42;;;0.80;;
16440;SDS011;8330;-33.858;151.184;2023-08-21T00:39:15;1.55;;;0.90;;
16440;SDS011;8330;-33.858;151.184;2023-08-21T00:41:46;2.63;;;0.60;;
16440;SDS011;8330;-33.858;151.184;2023-08-21T00:44:17;0.70;;;0.60;;
16440;SDS011;8330;-33.858;151.184;2023-08-21T00:46:47;1.45;;;0.60;;
16440;SDS011;8330;-33.858;151.184;2023-08-21T00:49:21;1.63;;;0.77;;
16440;SDS011;8330;-33.858;151.184;2023-08-21T00:51:52;0.82;;;0.70;;
16440;SDS011;8330;-33.858;151.184;2023-08-21T00:54:24;0.82;;;0.60;;
16440;SDS011;8330;-33.858;151.184;2023-08-21T00:56:55;1.75;;;0.70;;
16440;SDS011;8330;-33.858;151.184;2023-08-21T00:59:26;1.40;;;0.70;;
16440;SDS011;8330;-33.858;151.184;2023-08-21T01:01:57;3.72;;;0.70;;
16440;SDS011;8330;-33.858;151.184;2023-08-21T01:04:32;2.45;;;0.70;;
16440;SDS011;8330;-33.858;151.184;2023-08-21T01:07:03;0.90;;;0.70;;
16440;SDS011;8330;-33.858;151.184;2023-08-21T01:09:39;1.05;;;0.70;;
16440;SDS011;8330;-33.858;151.184;2023-08-21T01:12:16;1.35;;;0.73;;
16440;SDS011;8330;-33.858;151.184;2023-08-21T01:14:54;1.35;;;0.70;;
16440;SDS011;8330;-33.858;151.184;2023-08-21T01:17:29;1.02;;;0.60;;
16440;SDS011;8330;-33.858;151.184;2023-08-21T01:20:05;4.78;;;0.70;;
16440;SDS011;8330;-33.858;151.184;2023-08-21T01:22:38;1.70;;;0.73;;
16440;SDS011;8330;-33.858;151.184;2023-08-21T01:25:15;1.67;;;0.60;;
16440;SDS011;8330;-33.858;151.184;2023-08-21T01:27:47;2.25;;;0.60;;
16440;SDS011;8330;-33.858;151.184;2023-08-21T01:30:20;1.38;;;0.60;;
16440;SDS011;8330;-33.858;151.184;2023-08-21T01:32:56;1.27;;;0.80;;
16440;SDS011;8330;-33.858;151.184;2023-08-21T01:35:31;3.15;;;1.00;;
16440;SDS011;8330;-33.858;151.184;2023-08-21T01:38:06;0.57;;;0.57;;
16440;SDS011;8330;-33.858;151.184;2023-08-21T01:40:42;1.27;;;0.75;;
16440;SDS011;8330;-33.858;151.184;2023-08-21T01:43:13;2.70;;;0.80;;
16440;SDS011;8330;-33.858;151.184;2023-08-21T01:45:45;2.50;;;1.10;;
16440;SDS011;8330;-33.858;151.184;2023-08-21T01:48:17;1.73;;;0.85;;
16440;SDS011;8330;-33.858;151.184;2023-08-21T01:50:48;2.85;;;0.90;;
16440;SDS011;8330;-33.858;151.184;2023-08-21T01:53:19;1.33;;;0.70;;
16440;SDS011;8330;-33.858;151.184;2023-08-21T01:55:53;2.58;;;0.80;;
16440;SDS011;8330;-33.858;151.184;2023-08-21T01:58:24;1.92;;;1.00;;
16440;SDS011;8330;-33.858;151.184;2023-08-21T02:00:55;2.38;;;0.75;;
16440;SDS011;8330;-33.858;151.184;2023-08-21T02:03:26;1.95;;;0.73;;
16440;SDS011;8330;-33.858;151.184;2023-08-21T02:05:57;1.73;;;0.80;;
16440;SDS011;8330;-33.858;151.184;2023-08-21T02:08:31;2.35;;;0.60;;
16440;SDS011;8330;-33.858;151.184;2023-08-21T02:11:06;1.85;;;0.70;;
16440;SDS011;8330;-33.858;151.184;2023-08-21T02:13:36;1.75;;;0.90;;
16440;SDS011;8330;-33.858;151.184;2023-08-21T02:16:20;2.78;;;0.75;;
16440;SDS011;8330;-33.858;151.184;2023-08-21T02:18:51;1.27;;;0.90;;
16440;SDS011;8330;-33.858;151.184;2023-08-21T02:21:23;1.35;;;0.63;;
16440;SDS011;8330;-33.858;151.184;2023-08-21T02:23:54;1.70;;;0.88;;
16440;SDS011;8330;-33.858;151.184;2023-08-21T02:26:27;1.05;;;0.70;;
16440;SDS011;8330;-33.858;151.184;2023-08-21T02:29:01;0.82;;;0.80;;
16440;SDS011;8330;-33.858;151.184;2023-08-21T02:31:32;1.42;;;0.80;;
16440;SDS011;8330;-33.858;151.184;2023-08-21T02:34:04;2.65;;;0.80;;
16440;SDS011;8330;-33.858;151.184;2023-08-21T02:36:35;0.93;;;0.73;;
16440;SDS011;8330;-33.858;151.184;2023-08-21T02:39:04;1.35;;;0.70;;
16440;SDS011;8330;-33.858;151.184;2023-08-21T02:41:38;1.63;;;0.80;;
16440;SDS011;8330;-33.858;151.184;2023-08-21T02:44:08;1.55;;;0.80;;
16440;SDS011;8330;-33.858;151.184;2023-08-21T02:46:40;3.88;;;0.80;;
16440;SDS011;8330;-33.858;151.184;2023-08-21T02:49:11;1.70;;;0.80;;
16440;SDS011;8330;-33.858;151.184;2023-08-21T02:51:42;2.72;;;0.77;;
16440;SDS011;8330;-33.858;151.184;2023-08-21T02:54:14;2.00;;;0.85;;
16440;SDS011;8330;-33.858;151.184;2023-08-21T02:56:48;0.93;;;0.50;;
16440;SDS011;8330;-33.858;151.184;2023-08-21T02:59:19;2.70;;;0.73;;
16440;SDS011;8330;-33.858;151.184;2023-08-21T03:01:50;1.77;;;0.80;;
16440;SDS011;8330;-33.858;151.184;2023-08-21T03:04:22;1.00;;;0.70;;
16440;SDS011;8330;-33.858;151.184;2023-08-21T03:06:53;0.80;;;0.52;;
16440;SDS011;8330;-33.858;151.184;2023-08-21T03:09:24;1.88;;;0.73;;
16440;SDS011;8330;-33.858;151.184;2023-08-21T03:11:58;1.25;;;0.68;;
16440;SDS011;8330;-33.858;151.184;2023-08-21T03:14:30;0.88;;;0.75;;
16440;SDS011;8330;-33.858;151.184;2023-08-21T03:17:01;0.90;;;0.60;;
16440;SDS011;8330;-33.858;151.184;2023-08-21T03:19:32;1.80;;;0.60;;
16440;SDS011;8330;-33.858;151.184;2023-08-21T03:22:05;1.40;;;0.60;;
16440;SDS011;8330;-33.858;151.184;2023-08-21T03:24:37;0.95;;;0.85;;
16440;SDS011;8330;-33.858;151.184;2023-08-21T03:27:11;2.95;;;0.70;;
16440;SDS011;8330;-33.858;151.184;2023-08-21T03:29:44;0.80;;;0.70;;
16440;SDS011;8330;-33.858;151.184;2023-08-21T03:32:15;3.30;;;0.73;;
16440;SDS011;8330;-33.858;151.184;2023-08-21T03:34:46;2.15;;;0.90;;
16440;SDS011;8330;-33.858;151.184;2023-08-21T03:37:17;3.50;;;0.90;;
16440;SDS011;8330;-33.858;151.184;2023-08-21T03:39:47;1.95;;;0.90;;
16440;SDS011;8330;-33.858;151.184;2023-08-21T03:42:20;4.47;;;1.20;;
16440;SDS011;8330;-33.858;151.184;2023-08-21T03:44:51;1.98;;;0.88;;
16440;SDS011;8330;-33.858;151.184;2023-08-21T03:47:22;1.00;;;0.80;;
16440;SDS011;8330;-33.858;151.184;2023-08-21T03:49:53;2.40;;;1.00;;
16440;SDS011;8330;-33.858;151.184;2023-08-21T03:52:23;2.00;;;0.95;;
16440;SDS011;8330;-33.858;151.184;2023-08-21T03:54:54;2.00;;;0.70;;
16440;SDS011;8330;-33.858;151.184;2023-08-21T03:57:27;1.23;;;0.77;;
16440;SDS011;8330;-33.858;151.184;2023-08-21T03:59:57;2.88;;;0.70;;
16440;SDS011;8330;-33.858;151.184;2023-08-21T04:02:28;2.50;;;0.80;;
16440;SDS011;8330;-33.858;151.184;2023-08-21T04:04:59;1.48;;;0.70;;
16440;SDS011;8330;-33.858;151.184;2023-08-21T04:07:30;0.82;;;0.60;;
16440;SDS011;8330;-33.858;151.184;2023-08-21T04:10:01;0.77;;;0.60;;
16440;SDS011;8330;-33.858;151.184;2023-08-21T04:12:35;1.67;;;1.00;;
16440;SDS011;8330;-33.858;151.184;2023-08-21T04:15:07;2.72;;;0.88;;
16440;SDS011;8330;-33.858;151.184;2023-08-21T04:17:39;1.92;;;1.00;;
16440;SDS011;8330;-33.858;151.184;2023-08-21T04:20:11;2.05;;;0.85;;
16440;SDS011;8330;-33.858;151.184;2023-08-21T04:22:42;1.98;;;0.90;;
16440;SDS011;8330;-33.858;151.184;2023-08-21T04:25:13;0.88;;;0.85;;
16440;SDS011;8330;-33.858;151.184;2023-08-21T04:27:49;1.25;;;0.60;;
16440;SDS011;8330;-33.858;151.184;2023-08-21T04:30:20;2.10;;;0.93;;
16440;SDS011;8330;-33.858;151.184;2023-08-21T04:32:51;0.80;;;0.80;;
16440;SDS011;8330;-33.858;151.184;2023-08-21T04:35:21;4.55;;;0.80;;
16440;SDS011;8330;-33.858;151.184;2023-08-21T04:37:53;1.65;;;0.95;;
16440;SDS011;8330;-33.858;151.184;2023-08-21T04:40:25;1.02;;;0.88;;
16440;SDS011;8330;-33.858;151.184;2023-08-21T04:42:59;1.80;;;0.70;;
16440;SDS011;8330;-33.858;151.184;2023-08-21T04:45:30;2.85;;;0.85;;
16440;SDS011;8330;-33.858;151.184;2023-08-21T04:48:03;1.85;;;0.73;;
16440;SDS011;8330;-33.858;151.184;2023-08-21T04:50:35;2.80;;;0.90;;
16440;SDS011;8330;-33.858;151.184;2023-08-21T04:53:07;2.65;;;1.13;;
16440;SDS011;8330;-33.858;151.184;2023-08-21T04:55:39;1.65;;;0.90;;
16440;SDS011;8330;-33.858;151.184;2023-08-21T04:58:14;3.42;;;0.90;;
16440;SDS011;8330;-33.858;151.184;2023-08-21T05:00:46;2.08;;;0.80;;
16440;SDS011;8330;-33.858;151.184;2023-08-21T05:03:17;2.38;;;0.77;;
16440;SDS011;8330;-33.858;151.184;2023-08-21T05:05:55;1.75;;;0.80;;
16440;SDS011;8330;-33.858;151.184;2023-08-21T05:08:26;3.65;;;1.00;;
16440;SDS011;8330;-33.858;151.184;2023-08-21T05:10:57;2.80;;;0.95;;
16440;SDS011;8330;-33.858;151.184;2023-08-21T05:13:33;2.90;;;0.90;;
16440;SDS011;8330;-33.858;151.184;2023-08-21T05:16:09;0.82;;;0.80;;
16440;SDS011;8330;-33.858;151.184;2023-08-21T05:18:41;1.45;;;0.90;;
16440;SDS011;8330;-33.858;151.184;2023-08-21T05:21:12;3.00;;;0.80;;
16440;SDS011;8330;-33.858;151.184;2023-08-21T05:23:43;1.38;;;0.60;;
16440;SDS011;8330;-33.858;151.184;2023-08-21T05:26:14;1.95;;;0.70;;
16440;SDS011;8330;-33.858;151.184;2023-08-21T05:28:51;1.60;;;0.77;;
16440;SDS011;8330;-33.858;151.184;2023-08-21T05:31:22;1.77;;;0.90;;
16440;SDS011;8330;-33.858;151.184;2023-08-21T05:33:53;1.58;;;0.75;;
16440;SDS011;8330;-33.858;151.184;2023-08-21T05:36:27;1.67;;;0.90;;
16440;SDS011;8330;-33.858;151.184;2023-08-21T05:39:01;1.55;;;0.80;;
16440;SDS011;8330;-33.858;151.184;2023-08-21T05:41:34;2.08;;;0.85;;
16440;SDS011;8330;-33.858;151.184;2023-08-21T05:44:08;2.28;;;0.88;;
16440;SDS011;8330;-33.858;151.184;2023-08-21T05:46:39;1.55;;;0.75;;
16440;SDS011;8330;-33.858;151.184;2023-08-21T05:49:14;3.88;;;1.02;;
16440;SDS011;8330;-33.858;151.184;2023-08-21T05:51:47;2.28;;;0.90;;
16440;SDS011;8330;-33.858;151.184;2023-08-21T05:54:19;2.60;;;0.82;;
16440;SDS011;8330;-33.858;151.184;2023-08-21T05:56:50;2.40;;;0.75;;
16440;SDS011;8330;-33.858;151.184;2023-08-21T05:59:35;2.75;;;0.70;;
16440;SDS011;8330;-33.858;151.184;2023-08-21T06:02:12;4.35;;;0.82;;
16440;SDS011;8330;-33.858;151.184;2023-08-21T06:04:50;2.67;;;1.00;;
16440;SDS011;8330;-33.858;151.184;2023-08-21T06:07:24;3.20;;;1.00;;
16440;SDS011;8330;-33.858;151.184;2023-08-21T06:09:56;1.58;;;0.93;;
16440;SDS011;8330;-33.858;151.184;2023-08-21T06:12:27;1.52;;;0.70;;
16440;SDS011;8330;-33.858;151.184;2023-08-21T06:15:00;0.98;;;0.65;;
16440;SDS011;8330;-33.858;151.184;2023-08-21T06:17:34;1.33;;;0.68;;
16440;SDS011;8330;-33.858;151.184;2023-08-21T06:20:05;0.98;;;0.60;;
16440;SDS011;8330;-33.858;151.184;2023-08-21T06:22:37;1.50;;;0.68;;
16440;SDS011;8330;-33.858;151.184;2023-08-21T06:25:08;0.90;;;0.60;;
16440;SDS011;8330;-33.858;151.184;2023-08-21T06:27:40;1.95;;;0.68;;
16440;SDS011;8330;-33.858;151.184;2023-08-21T06:30:14;1.75;;;0.65;;
16440;SDS011;8330;-33.858;151.184;2023-08-21T06:32:46;3.92;;;0.70;;
16440;SDS011;8330;-33.858;151.184;2023-08-21T06:35:17;1.25;;;0.70;;
16440;SDS011;8330;-33.858;151.184;2023-08-21T06:37:48;1.50;;;0.75;;
16440;SDS011;8330;-33.858;151.184;2023-08-21T06:40:23;0.70;;;0.63;;
16440;SDS011;8330;-33.858;151.184;2023-08-21T06:42:55;3.72;;;0.80;;
16440;SDS011;8330;-33.858;151.184;2023-08-21T06:45:27;2.60;;;0.75;;
16440;SDS011;8330;-33.858;151.184;2023-08-21T06:47:58;1.88;;;0.70;;
16440;SDS011;8330;-33.858;151.184;2023-08-21T06:50:30;1.40;;;0.60;;
16440;SDS011;8330;-33.858;151.184;2023-08-21T06:53:01;1.98;;;0.90;;
16440;SDS011;8330;-33.858;151.184;2023-08-21T06:55:34;2.08;;;0.80;;
16440;SDS011;8330;-33.858;151.184;2023-08-21T06:58:05;2.47;;;0.80;;
16440;SDS011;8330;-33.858;151.184;2023-08-21T07:00:38;2.70;;;0.80;;
16440;SDS011;8330;-33.858;151.184;2023-08-21T07:03:09;1.13;;;0.70;;
16440;SDS011;8330;-33.858;151.184;2023-08-21T07:05:40;1.88;;;0.60;;
16440;SDS011;8330;-33.858;151.184;2023-08-21T07:08:15;1.13;;;0.68;;
16440;SDS011;8330;-33.858;151.184;2023-08-21T07:10:45;1.10;;;0.70;;
16440;SDS011;8330;-33.858;151.184;2023-08-21T07:13:16;1.13;;;0.70;;
16440;SDS011;8330;-33.858;151.184;2023-08-21T07:15:52;2.75;;;0.80;;
16440;SDS011;8330;-33.858;151.184;2023-08-21T07:18:23;2.40;;;1.60;;
16440;SDS011;8330;-33.858;151.184;2023-08-21T07:20:55;4.15;;;1.30;;
16440;SDS011;8330;-33.858;151.184;2023-08-21T07:23:26;1.83;;;1.20;;
16440;SDS011;8330;-33.858;151.184;2023-08-21T07:25:58;2.67;;;1.10;;
16440;SDS011;8330;-33.858;151.184;2023-08-21T07:28:31;1.17;;;0.90;;
16440;SDS011;8330;-33.858;151.184;2023-08-21T07:31:06;2.55;;;1.10;;
16440;SDS011;8330;-33.858;151.184;2023-08-21T07:33:37;2.03;;;0.93;;
16440;SDS011;8330;-33.858;151.184;2023-08-21T07:36:08;1.75;;;1.10;;
16440;SDS011;8330;-33.858;151.184;2023-08-21T07:38:43;2.35;;;1.10;;
16440;SDS011;8330;-33.858;151.184;2023-08-21T07:41:13;2.17;;;0.90;;
16440;SDS011;8330;-33.858;151.184;2023-08-21T07:43:45;1.90;;;1.00;;
16440;SDS011;8330;-33.858;151.184;2023-08-21T07:46:18;0.85;;;0.70;;
16440;SDS011;8330;-33.858;151.184;2023-08-21T07:48:50;1.95;;;0.90;;
16440;SDS011;8330;-33.858;151.184;2023-08-21T07:51:21;2.83;;;1.02;;
16440;SDS011;8330;-33.858;151.184;2023-08-21T07:53:55;1.52;;;1.05;;
16440;SDS011;8330;-33.858;151.184;2023-08-21T07:56:25;2.33;;;1.13;;
16440;SDS011;8330;-33.858;151.184;2023-08-21T07:58:56;2.90;;;1.13;;
16440;SDS011;8330;-33.858;151.184;2023-08-21T08:01:29;1.17;;;0.80;;
16440;SDS011;8330;-33.858;151.184;2023-08-21T08:04:00;4.75;;;0.90;;
16440;SDS011;8330;-33.858;151.184;2023-08-21T08:06:31;1.50;;;1.10;;
16440;SDS011;8330;-33.858;151.184;2023-08-21T08:09:04;1.20;;;1.10;;
16440;SDS011;8330;-33.858;151.184;2023-08-21T08:11:35;1.67;;;1.15;;
16440;SDS011;8330;-33.858;151.184;2023-08-21T08:14:05;1.45;;;0.90;;
16440;SDS011;8330;-33.858;151.184;2023-08-21T08:16:39;2.03;;;1.00;;
16440;SDS011;8330;-33.858;151.184;2023-08-21T08:19:10;1.95;;;1.10;;
16440;SDS011;8330;-33.858;151.184;2023-08-21T08:21:41;1.52;;;0.90;;
16440;SDS011;8330;-33.858;151.184;2023-08-21T08:24:12;2.35;;;1.17;;
16440;SDS011;8330;-33.858;151.184;2023-08-21T08:26:43;3.80;;;1.20;;
16440;SDS011;8330;-33.858;151.184;2023-08-21T08:29:14;1.98;;;1.00;;
16440;SDS011;8330;-33.858;151.184;2023-08-21T08:31:46;2.35;;;1.40;;
16440;SDS011;8330;-33.858;151.184;2023-08-21T08:34:17;1.95;;;1.20;;
16440;SDS011;8330;-33.858;151.184;2023-08-21T08:36:48;2.92;;;1.20;;
16440;SDS011;8330;-33.858;151.184;2023-08-21T08:39:19;2.53;;;1.33;;
16440;SDS011;8330;-33.858;151.184;2023-08-21T08:41:51;1.98;;;1.40;;
16440;SDS011;8330;-33.858;151.184;2023-08-21T08:44:27;1.95;;;1.20;;
16440;SDS011;8330;-33.858;151.184;2023-08-21T08:47:10;3.03;;;1.40;;
16440;SDS011;8330;-33.858;151.184;2023-08-21T08:49:45;1.83;;;1.13;;
16440;SDS011;8330;-33.858;151.184;2023-08-21T08:52:24;4.47;;;1.30;;
16440;SDS011;8330;-33.858;151.184;2023-08-21T08:54:58;2.95;;;1.45;;
16440;SDS011;8330;-33.858;151.184;2023-08-21T08:57:35;2.60;;;1.40;;
16440;SDS011;8330;-33.858;151.184;2023-08-21T09:00:07;5.43;;;1.50;;
16440;SDS011;8330;-33.858;151.184;2023-08-21T09:02:40;1.88;;;1.20;;
16440;SDS011;8330;-33.858;151.184;2023-08-21T09:05:11;2.08;;;1.30;;
16440;SDS011;8330;-33.858;151.184;2023-08-21T09:07:42;2.70;;;1.35;;
16440;SDS011;8330;-33.858;151.184;2023-08-21T09:10:14;1.77;;;1.05;;
16440;SDS011;8330;-33.858;151.184;2023-08-21T09:12:46;1.83;;;1.00;;
16440;SDS011;8330;-33.858;151.184;2023-08-21T09:15:17;2.78;;;1.17;;
16440;SDS011;8330;-33.858;151.184;2023-08-21T09:17:55;1.50;;;1.10;;
16440;SDS011;8330;-33.858;151.184;2023-08-21T09:20:25;2.58;;;1.45;;
16440;SDS011;8330;-33.858;151.184;2023-08-21T09:23:05;2.17;;;1.35;;
16440;SDS011;8330;-33.858;151.184;2023-08-21T09:25:36;2.55;;;1.35;;
16440;SDS011;8330;-33.858;151.184;2023-08-21T09:28:09;2.78;;;1.10;;
16440;SDS011;8330;-33.858;151.184;2023-08-21T09:30:47;1.65;;;1.10;;
16440;SDS011;8330;-33.858;151.184;2023-08-21T09:33:23;1.60;;;1.13;;
16440;SDS011;8330;-33.858;151.184;2023-08-21T09:35:54;2.35;;;1.10;;
16440;SDS011;8330;-33.858;151.184;2023-08-21T09:38:26;1.55;;;1.10;;
16440;SDS011;8330;-33.858;151.184;2023-08-21T09:40:57;1.95;;;1.20;;
16440;SDS011;8330;-33.858;151.184;2023-08-21T09:43:28;1.58;;;1.20;;
16440;SDS011;8330;-33.858;151.184;2023-08-21T09:45:59;2.72;;;1.23;;
16440;SDS011;8330;-33.858;151.184;2023-08-21T09:48:33;2.75;;;1.17;;
16440;SDS011;8330;-33.858;151.184;2023-08-21T09:51:05;2.67;;;1.30;;
16440;SDS011;8330;-33.858;151.184;2023-08-21T09:53:36;2.60;;;1.50;;
16440;SDS011;8330;-33.858;151.184;2023-08-21T09:56:11;2.30;;;1.30;;
16440;SDS011;8330;-33.858;151.184;2023-08-21T09:58:42;1.30;;;1.20;;
16440;SDS011;8330;-33.858;151.184;2023-08-21T10:01:16;2.33;;;1.20;;
16440;SDS011;8330;-33.858;151.184;2023-08-21T10:03:51;1.83;;;1.20;;
16440;SDS011;8330;-33.858;151.184;2023-08-21T10:06:26;1.83;;;1.20;;
16440;SDS011;8330;-33.858;151.184;2023-08-21T10:08:58;1.92;;;1.27;;
16440;SDS011;8330;-33.858;151.184;2023-08-21T10:11:29;1.95;;;1.20;;
16440;SDS011;8330;-33.858;151.184;2023-08-21T10:14:01;2.17;;;1.30;;
16440;SDS011;8330;-33.858;151.184;2023-08-21T10:16:34;2.78;;;1.40;;
16440;SDS011;8330;-33.858;151.184;2023-08-21T10:19:08;2.00;;;1.45;;
16440;SDS011;8330;-33.858;151.184;2023-08-21T10:21:45;2.13;;;1.50;;
16440;SDS011;8330;-33.858;151.184;2023-08-21T10:24:28;1.90;;;1.20;;
16440;SDS011;8330;-33.858;151.184;2023-08-21T10:27:04;2.30;;;1.23;;
16440;SDS011;8330;-33.858;151.184;2023-08-21T10:29:38;3.15;;;1.23;;
16440;SDS011;8330;-33.858;151.184;2023-08-21T10:32:15;2.13;;;1.08;;
16440;SDS011;8330;-33.858;151.184;2023-08-21T10:35:30;2.67;;;1.17;;
16440;SDS011;8330;-33.858;151.184;2023-08-21T10:38:06;3.38;;;1.20;;
16440;SDS011;8330;-33.858;151.184;2023-08-21T10:43:54;3.70;;;1.30;;
16440;SDS011;8330;-33.858;151.184;2023-08-21T10:46:26;1.30;;;1.13;;
16440;SDS011;8330;-33.858;151.184;2023-08-21T10:49:17;2.60;;;1.35;;
16440;SDS011;8330;-33.858;151.184;2023-08-21T10:51:55;1.52;;;1.17;;
16440;SDS011;8330;-33.858;151.184;2023-08-21T10:54:26;2.15;;;1.25;;
16440;SDS011;8330;-33.858;151.184;2023-08-21T10:56:56;1.20;;;1.00;;
16440;SDS011;8330;-33.858;151.184;2023-08-21T10:59:32;1.48;;;1.00;;
16440;SDS011;8330;-33.858;151.184;2023-08-21T11:02:04;2.20;;;1.10;;
16440;SDS011;8330;-33.858;151.184;2023-08-21T11:04:42;1.30;;;1.13;;
16440;SDS011;8330;-33.858;151.184;2023-08-21T11:07:15;1.40;;;1.10;;
16440;SDS011;8330;-33.858;151.184;2023-08-21T11:09:47;1.58;;;1.10;;
16440;SDS011;8330;-33.858;151.184;2023-08-21T11:12:18;2.15;;;0.90;;
16440;SDS011;8330;-33.858;151.184;2023-08-21T11:14:50;2.20;;;1.00;;
16440;SDS011;8330;-33.858;151.184;2023-08-21T11:17:28;2.65;;;1.20;;
16440;SDS011;8330;-33.858;151.184;2023-08-21T11:20:01;1.80;;;0.90;;
16440;SDS011;8330;-33.858;151.184;2023-08-21T11:22:43;1.48;;;1.02;;
16440;SDS011;8330;-33.858;151.184;2023-08-21T11:25:15;1.42;;;0.85;;
16440;SDS011;8330;-33.858;151.184;2023-08-21T11:27:49;1.48;;;0.75;;
16440;SDS011;8330;-33.858;151.184;2023-08-21T11:30:25;2.05;;;1.10;;
16440;SDS011;8330;-33.858;151.184;2023-08-21T11:33:07;1.30;;;1.00;;
16440;SDS011;8330;-33.858;151.184;2023-08-21T11:35:41;2.17;;;0.93;;
16440;SDS011;8330;-33.858;151.184;2023-08-21T11:38:17;1.55;;;1.05;;
16440;SDS011;8330;-33.858;151.184;2023-08-21T11:40:53;1.63;;;1.00;;
16440;SDS011;8330;-33.858;151.184;2023-08-21T11:43:35;1.35;;;1.15;;
16440;SDS011;8330;-33.858;151.184;2023-08-21T11:46:09;1.48;;;0.98;;
16440;SDS011;8330;-33.858;151.184;2023-08-21T11:48:44;3.35;;;1.10;;
16440;SDS011;8330;-33.858;151.184;2023-08-21T11:51:15;1.15;;;1.05;;
16440;SDS011;8330;-33.858;151.184;2023-08-21T11:53:48;1.60;;;1.15;;
16440;SDS011;8330;-33.858;151.184;2023-08-21T11:56:20;2.20;;;1.30;;
16440;SDS011;8330;-33.858;151.184;2023-08-21T11:58:57;1.92;;;1.40;;
16440;SDS011;8330;-33.858;151.184;2023-08-21T12:01:28;2.45;;;1.30;;
16440;SDS011;8330;-33.858;151.184;2023-08-21T12:04:16;2.58;;;1.33;;
16440;SDS011;8330;-33.858;151.184;2023-08-21T12:06:49;2.30;;;1.40;;
16440;SDS011;8330;-33.858;151.184;2023-08-21T12:09:23;2.42;;;1.35;;
16440;SDS011;8330;-33.858;151.184;2023-08-21T12:11:55;2.63;;;1.52;;
16440;SDS011;8330;-33.858;151.184;2023-08-21T12:14:26;3.30;;;1.55;;
16440;SDS011;8330;-33.858;151.184;2023-08-21T12:16:58;2.20;;;1.48;;
16440;SDS011;8330;-33.858;151.184;2023-08-21T12:19:29;2.38;;;1.48;;
16440;SDS011;8330;-33.858;151.184;2023-08-21T12:22:00;2.55;;;1.65;;
16440;SDS011;8330;-33.858;151.184;2023-08-21T12:24:33;2.00;;;1.58;;
16440;SDS011;8330;-33.858;151.184;2023-08-21T12:27:06;3.50;;;1.92;;
16440;SDS011;8330;-33.858;151.184;2023-08-21T12:29:38;1.98;;;1.42;;
16440;SDS011;8330;-33.858;151.184;2023-08-21T12:32:08;3.97;;;1.50;;
16440;SDS011;8330;-33.858;151.184;2023-08-21T12:34:39;1.48;;;1.27;;
16440;SDS011;8330;-33.858;151.184;2023-08-21T12:37:11;2.85;;;1.45;;
16440;SDS011;8330;-33.858;151.184;2023-08-21T12:39:44;3.08;;;1.48;;
16440;SDS011;8330;-33.858;151.184;2023-08-21T12:42:15;2.65;;;1.20;;
16440;SDS011;8330;-33.858;151.184;2023-08-21T12:44:45;4.03;;;1.52;;
16440;SDS011;8330;-33.858;151.184;2023-08-21T12:47:17;1.90;;;1.42;;
16440;SDS011;8330;-33.858;151.184;2023-08-21T12:49:48;2.97;;;1.60;;
16440;SDS011;8330;-33.858;151.184;2023-08-21T12:52:19;2.58;;;1.25;;
16440;SDS011;8330;-33.858;151.184;2023-08-21T12:54:53;2.88;;;1.50;;
16440;SDS011;8330;-33.858;151.184;2023-08-21T12:57:23;2.47;;;1.50;;
16440;SDS011;8330;-33.858;151.184;2023-08-21T12:59:55;1.58;;;1.40;;
16440;SDS011;8330;-33.858;151.184;2023-08-21T13:02:26;2.38;;;1.52;;
16440;SDS011;8330;-33.858;151.184;2023-08-21T13:04:57;3.78;;;1.45;;
16440;SDS011;8330;-33.858;151.184;2023-08-21T13:07:31;2.85;;;1.40;;
16440;SDS011;8330;-33.858;151.184;2023-08-21T13:10:05;2.55;;;1.55;;
16440;SDS011;8330;-33.858;151.184;2023-08-21T13:12:38;2.47;;;1.65;;
16440;SDS011;8330;-33.858;151.184;2023-08-21T13:15:10;2.38;;;1.60;;
16440;SDS011;8330;-33.858;151.184;2023-08-21T13:17:41;2.00;;;1.55;;
16440;SDS011;8330;-33.858;151.184;2023-08-21T13:20:12;2.38;;;1.80;;
16440;SDS011;8330;-33.858;151.184;2023-08-21T13:22:47;2.60;;;1.40;;
16440;SDS011;8330;-33.858;151.184;2023-08-21T13:25:22;2.80;;;1.58;;
16440;SDS011;8330;-33.858;151.184;2023-08-21T13:27:53;2.42;;;1.70;;
16440;SDS011;8330;-33.858;151.184;2023-08-21T13:30:25;2.50;;;1.85;;
16440;SDS011;8330;-33.858;151.184;2023-08-21T13:32:55;4.38;;;2.80;;
16440;SDS011;8330;-33.858;151.184;2023-08-21T13:35:26;2.67;;;2.03;;
16440;SDS011;8330;-33.858;151.184;2023-08-21T13:37:57;2.38;;;1.60;;
16440;SDS011;8330;-33.858;151.184;2023-08-21T13:43:17;2.45;;;1.52;;
16440;SDS011;8330;-33.858;151.184;2023-08-21T13:45:48;6.28;;;1.80;;
16440;SDS011;8330;-33.858;151.184;2023-08-21T13:48:20;2.72;;;1.60;;
16440;SDS011;8330;-33.858;151.184;2023-08-21T13:50:51;3.05;;;1.70;;
16440;SDS011;8330;-33.858;151.184;2023-08-21T13:53:22;2.33;;;1.60;;
16440;SDS011;8330;-33.858;151.184;2023-08-21T13:55:56;3.78;;;2.08;;
16440;SDS011;8330;-33.858;151.184;2023-08-21T13:58:28;2.40;;;1.80;;
16440;SDS011;8330;-33.858;151.184;2023-08-21T14:00:58;5.40;;;1.95;;
16440;SDS011;8330;-33.858;151.184;2023-08-21T14:03:30;2.20;;;1.70;;
16440;SDS011;8330;-33.858;151.184;2023-08-21T14:06:00;2.60;;;1.60;;
16440;SDS011;8330;-33.858;151.184;2023-08-21T14:08:31;3.42;;;1.90;;
16440;SDS011;8330;-33.858;151.184;2023-08-21T14:11:06;2.13;;;1.70;;
16440;SDS011;8330;-33.858;151.184;2023-08-21T14:13:37;3.58;;;1.70;;
16440;SDS011;8330;-33.858;151.184;2023-08-21T14:16:08;2.15;;;1.70;;
16440;SDS011;8330;-33.858;151.184;2023-08-21T14:18:39;1.70;;;1.55;;
16440;SDS011;8330;-33.858;151.184;2023-08-21T14:21:09;2.50;;;1.63;;
16440;SDS011;8330;-33.858;151.184;2023-08-21T14:23:40;1.88;;;1.40;;
16440;SDS011;8330;-33.858;151.184;2023-08-21T14:26:17;4.18;;;2.00;;
16440;SDS011;8330;-33.858;151.184;2023-08-21T14:28:51;2.38;;;1.48;;
16440;SDS011;8330;-33.858;151.184;2023-08-21T14:31:22;1.98;;;1.50;;
16440;SDS011;8330;-33.858;151.184;2023-08-21T14:33:53;2.30;;;1.70;;
16440;SDS011;8330;-33.858;151.184;2023-08-21T14:36:24;2.13;;;1.60;;
16440;SDS011;8330;-33.858;151.184;2023-08-21T14:38:54;2.72;;;1.60;;
16440;SDS011;8330;-33.858;151.184;2023-08-21T14:41:28;2.15;;;1.63;;
16440;SDS011;8330;-33.858;151.184;2023-08-21T14:43:59;2.88;;;1.83;;
16440;SDS011;8330;-33.858;151.184;2023-08-21T14:46:30;2.25;;;2.03;;
16440;SDS011;8330;-33.858;151.184;2023-08-21T14:49:01;2.15;;;1.70;;
16440;SDS011;8330;-33.858;151.184;2023-08-21T14:51:32;3.22;;;1.60;;
16440;SDS011;8330;-33.858;151.184;2023-08-21T14:54:04;1.92;;;1.60;;
16440;SDS011;8330;-33.858;151.184;2023-08-21T14:56:38;2.90;;;1.58;;
16440;SDS011;8330;-33.858;151.184;2023-08-21T14:59:09;2.65;;;1.75;;